sensor_id;sensor_type;location;lat;lon;timestamp;P1;durP1;ratioP1;P2;durP2;ratioP2
35488;SDS011;21602;55.670;37.578;2022-07-23T00:00:17;3.88;;;2.47;;
35488;SDS011;21602;55.670;37.578;2022-07-23T00:02:44;7.15;;;2.85;;
35488;SDS011;21602;55.670;37.578;2022-07-23T00:05:10;10.98;;;3.40;;
35488;SDS011;21602;55.670;37.578;2022-07-23T00:07:36;3.60;;;2.60;;
35488;SDS011;21602;55.670;37.578;2022-07-23T00:10:02;6.15;;;2.85;;
35488;SDS011;21602;55.670;37.578;2022-07-23T00:12:29;7.35;;;2.75;;
35488;SDS011;21602;55.670;37.578;2022-07-23T00:14:55;7.50;;;2.85;;
35488;SDS011;21602;55.670;37.578;2022-07-23T00:17:20;8.68;;;3.15;;
35488;SDS011;21602;55.670;37.578;2022-07-23T00:19:46;6.82;;;2.47;;
35488;SDS011;21602;55.670;37.578;2022-07-23T00:22:12;4.45;;;2.60;;
35488;SDS011;21602;55.670;37.578;2022-07-23T00:24:38;4.22;;;2.75;;
35488;SDS011;21602;55.670;37.578;2022-07-23T00:27:04;4.43;;;2.78;;
35488;SDS011;21602;55.670;37.578;2022-07-23T00:29:30;5.22;;;3.92;;
35488;SDS011;21602;55.670;37.578;2022-07-23T00:31:55;6.07;;;3.25;;
35488;SDS011;21602;55.670;37.578;2022-07-23T00:34:21;9.18;;;2.90;;
35488;SDS011;21602;55.670;37.578;2022-07-23T00:36:47;8.02;;;3.80;;
35488;SDS011;21602;55.670;37.578;2022-07-23T00:39:13;4.32;;;2.42;;
35488;SDS011;21602;55.670;37.578;2022-07-23T00:41:39;9.82;;;2.85;;
35488;SDS011;21602;55.670;37.578;2022-07-23T00:44:24;5.80;;;3.00;;
35488;SDS011;21602;55.670;37.578;2022-07-23T00:46:53;4.60;;;2.47;;
35488;SDS011;21602;55.670;37.578;2022-07-23T00:49:22;5.07;;;3.30;;
35488;SDS011;21602;55.670;37.578;2022-07-23T00:51:49;4.18;;;3.03;;
35488;SDS011;21602;55.670;37.578;2022-07-23T00:54:16;6.90;;;3.63;;
35488;SDS011;21602;55.670;37.578;2022-07-23T00:56:43;4.60;;;2.75;;
35488;SDS011;21602;55.670;37.578;2022-07-23T00:59:10;4.13;;;3.05;;
35488;SDS011;21602;55.670;37.578;2022-07-23T01:01:36;6.53;;;2.67;;
35488;SDS011;21602;55.670;37.578;2022-07-23T01:04:02;4.28;;;2.78;;
35488;SDS011;21602;55.670;37.578;2022-07-23T01:06:28;5.28;;;2.63;;
35488;SDS011;21602;55.670;37.578;2022-07-23T01:08:55;7.57;;;2.70;;
35488;SDS011;21602;55.670;37.578;2022-07-23T01:11:22;5.75;;;3.00;;
35488;SDS011;21602;55.670;37.578;2022-07-23T01:13:50;4.03;;;2.58;;
35488;SDS011;21602;55.670;37.578;2022-07-23T01:16:16;7.05;;;2.70;;
35488;SDS011;21602;55.670;37.578;2022-07-23T01:18:42;5.90;;;3.00;;
35488;SDS011;21602;55.670;37.578;2022-07-23T01:21:08;5.00;;;2.53;;
35488;SDS011;21602;55.670;37.578;2022-07-23T01:23:38;3.78;;;3.10;;
35488;SDS011;21602;55.670;37.578;2022-07-23T01:26:04;8.20;;;3.22;;
35488;SDS011;21602;55.670;37.578;2022-07-23T01:28:30;9.40;;;3.05;;
35488;SDS011;21602;55.670;37.578;2022-07-23T01:30:58;8.15;;;2.78;;
35488;SDS011;21602;55.670;37.578;2022-07-23T01:33:24;7.38;;;3.05;;
35488;SDS011;21602;55.670;37.578;2022-07-23T01:35:49;7.15;;;3.42;;
35488;SDS011;21602;55.670;37.578;2022-07-23T01:38:22;6.85;;;2.63;;
35488;SDS011;21602;55.670;37.578;2022-07-23T01:40:48;4.13;;;2.88;;
35488;SDS011;21602;55.670;37.578;2022-07-23T01:43:14;3.60;;;2.58;;
35488;SDS011;21602;55.670;37.578;2022-07-23T01:45:39;7.05;;;3.05;;
35488;SDS011;21602;55.670;37.578;2022-07-23T01:48:05;9.98;;;3.38;;
35488;SDS011;21602;55.670;37.578;2022-07-23T01:50:32;4.75;;;2.67;;
35488;SDS011;21602;55.670;37.578;2022-07-23T01:53:16;5.20;;;2.90;;
35488;SDS011;21602;55.670;37.578;2022-07-23T01:55:42;8.18;;;3.47;;
35488;SDS011;21602;55.670;37.578;2022-07-23T01:58:09;5.45;;;3.42;;
35488;SDS011;21602;55.670;37.578;2022-07-23T02:00:35;4.65;;;3.22;;
35488;SDS011;21602;55.670;37.578;2022-07-23T02:03:01;8.85;;;3.08;;
35488;SDS011;21602;55.670;37.578;2022-07-23T02:05:28;13.07;;;3.75;;
35488;SDS011;21602;55.670;37.578;2022-07-23T02:07:55;11.05;;;3.15;;
35488;SDS011;21602;55.670;37.578;2022-07-23T02:10:21;6.18;;;3.00;;
35488;SDS011;21602;55.670;37.578;2022-07-23T02:12:47;5.45;;;2.83;;
35488;SDS011;21602;55.670;37.578;2022-07-23T02:15:33;3.60;;;2.75;;
35488;SDS011;21602;55.670;37.578;2022-07-23T02:17:59;4.15;;;2.85;;
35488;SDS011;21602;55.670;37.578;2022-07-23T02:20:24;5.15;;;3.03;;
35488;SDS011;21602;55.670;37.578;2022-07-23T02:22:50;7.70;;;3.05;;
35488;SDS011;21602;55.670;37.578;2022-07-23T02:25:16;10.10;;;3.33;;
35488;SDS011;21602;55.670;37.578;2022-07-23T02:27:42;6.50;;;3.47;;
35488;SDS011;21602;55.670;37.578;2022-07-23T02:30:08;6.95;;;3.10;;
35488;SDS011;21602;55.670;37.578;2022-07-23T02:32:34;5.22;;;3.00;;
35488;SDS011;21602;55.670;37.578;2022-07-23T02:35:01;8.75;;;3.58;;
35488;SDS011;21602;55.670;37.578;2022-07-23T02:37:28;7.88;;;3.30;;
35488;SDS011;21602;55.670;37.578;2022-07-23T02:39:54;8.85;;;3.45;;
35488;SDS011;21602;55.670;37.578;2022-07-23T02:42:20;10.75;;;3.10;;
35488;SDS011;21602;55.670;37.578;2022-07-23T02:44:48;4.90;;;3.42;;
35488;SDS011;21602;55.670;37.578;2022-07-23T02:47:13;8.63;;;3.22;;
35488;SDS011;21602;55.670;37.578;2022-07-23T02:49:39;6.03;;;3.60;;
35488;SDS011;21602;55.670;37.578;2022-07-23T02:52:06;10.13;;;3.40;;
35488;SDS011;21602;55.670;37.578;2022-07-23T02:54:32;4.72;;;3.60;;
35488;SDS011;21602;55.670;37.578;2022-07-23T02:56:58;6.25;;;3.97;;
35488;SDS011;21602;55.670;37.578;2022-07-23T02:59:25;6.03;;;3.20;;
35488;SDS011;21602;55.670;37.578;2022-07-23T03:01:51;10.52;;;3.35;;
35488;SDS011;21602;55.670;37.578;2022-07-23T03:04:18;5.10;;;3.25;;
35488;SDS011;21602;55.670;37.578;2022-07-23T03:06:43;6.43;;;3.78;;
35488;SDS011;21602;55.670;37.578;2022-07-23T03:09:09;5.13;;;3.63;;
35488;SDS011;21602;55.670;37.578;2022-07-23T03:11:37;5.70;;;3.22;;
35488;SDS011;21602;55.670;37.578;2022-07-23T03:14:03;7.57;;;3.70;;
35488;SDS011;21602;55.670;37.578;2022-07-23T03:16:28;12.77;;;3.80;;
35488;SDS011;21602;55.670;37.578;2022-07-23T03:18:54;6.05;;;3.70;;
35488;SDS011;21602;55.670;37.578;2022-07-23T03:21:20;5.68;;;3.60;;
35488;SDS011;21602;55.670;37.578;2022-07-23T03:23:46;7.30;;;4.25;;
35488;SDS011;21602;55.670;37.578;2022-07-23T03:26:11;4.65;;;3.97;;
35488;SDS011;21602;55.670;37.578;2022-07-23T03:28:37;6.75;;;3.95;;
35488;SDS011;21602;55.670;37.578;2022-07-23T03:31:04;14.37;;;3.97;;
35488;SDS011;21602;55.670;37.578;2022-07-23T03:33:30;6.65;;;4.90;;
35488;SDS011;21602;55.670;37.578;2022-07-23T03:35:56;6.47;;;3.65;;
35488;SDS011;21602;55.670;37.578;2022-07-23T03:38:25;8.85;;;4.28;;
35488;SDS011;21602;55.670;37.578;2022-07-23T03:40:52;9.60;;;4.05;;
35488;SDS011;21602;55.670;37.578;2022-07-23T03:43:18;7.35;;;3.67;;
35488;SDS011;21602;55.670;37.578;2022-07-23T03:45:44;9.02;;;4.22;;
35488;SDS011;21602;55.670;37.578;2022-07-23T03:48:10;7.20;;;3.88;;
35488;SDS011;21602;55.670;37.578;2022-07-23T03:50:36;5.68;;;4.28;;
35488;SDS011;21602;55.670;37.578;2022-07-23T03:53:03;9.10;;;4.72;;
35488;SDS011;21602;55.670;37.578;2022-07-23T03:55:31;6.43;;;4.63;;
35488;SDS011;21602;55.670;37.578;2022-07-23T03:57:57;7.20;;;3.70;;
35488;SDS011;21602;55.670;37.578;2022-07-23T04:00:23;8.75;;;4.78;;
35488;SDS011;21602;55.670;37.578;2022-07-23T04:02:50;8.82;;;4.30;;
35488;SDS011;21602;55.670;37.578;2022-07-23T04:05:16;9.38;;;4.10;;
35488;SDS011;21602;55.670;37.578;2022-07-23T04:07:45;6.97;;;4.40;;
35488;SDS011;21602;55.670;37.578;2022-07-23T04:10:11;10.73;;;4.45;;
35488;SDS011;21602;55.670;37.578;2022-07-23T04:12:37;12.45;;;4.70;;
35488;SDS011;21602;55.670;37.578;2022-07-23T04:15:03;8.43;;;4.07;;
35488;SDS011;21602;55.670;37.578;2022-07-23T04:17:31;10.32;;;4.75;;
35488;SDS011;21602;55.670;37.578;2022-07-23T04:19:57;6.63;;;4.55;;
35488;SDS011;21602;55.670;37.578;2022-07-23T04:22:29;8.45;;;4.38;;
35488;SDS011;21602;55.670;37.578;2022-07-23T04:24:55;11.65;;;4.63;;
35488;SDS011;21602;55.670;37.578;2022-07-23T04:27:21;6.63;;;4.25;;
35488;SDS011;21602;55.670;37.578;2022-07-23T04:29:47;6.55;;;3.92;;
35488;SDS011;21602;55.670;37.578;2022-07-23T04:32:13;9.23;;;4.28;;
35488;SDS011;21602;55.670;37.578;2022-07-23T04:34:39;8.75;;;4.45;;
35488;SDS011;21602;55.670;37.578;2022-07-23T04:37:06;9.75;;;4.57;;
35488;SDS011;21602;55.670;37.578;2022-07-23T04:39:31;6.13;;;4.25;;
35488;SDS011;21602;55.670;37.578;2022-07-23T04:41:58;7.35;;;4.15;;
35488;SDS011;21602;55.670;37.578;2022-07-23T04:44:24;7.15;;;4.28;;
35488;SDS011;21602;55.670;37.578;2022-07-23T04:46:50;7.78;;;4.25;;
35488;SDS011;21602;55.670;37.578;2022-07-23T04:49:16;7.28;;;4.47;;
35488;SDS011;21602;55.670;37.578;2022-07-23T04:51:41;15.38;;;4.82;;
35488;SDS011;21602;55.670;37.578;2022-07-23T04:54:07;5.38;;;4.50;;
35488;SDS011;21602;55.670;37.578;2022-07-23T04:56:33;12.80;;;5.03;;
35488;SDS011;21602;55.670;37.578;2022-07-23T04:58:59;8.57;;;4.53;;
35488;SDS011;21602;55.670;37.578;2022-07-23T05:01:25;7.07;;;5.35;;
35488;SDS011;21602;55.670;37.578;2022-07-23T05:03:51;8.15;;;4.47;;
35488;SDS011;21602;55.670;37.578;2022-07-23T05:06:17;8.35;;;4.43;;
35488;SDS011;21602;55.670;37.578;2022-07-23T05:08:43;8.55;;;5.35;;
35488;SDS011;21602;55.670;37.578;2022-07-23T05:11:10;6.50;;;4.72;;
35488;SDS011;21602;55.670;37.578;2022-07-23T05:13:35;9.13;;;4.68;;
35488;SDS011;21602;55.670;37.578;2022-07-23T05:16:03;12.43;;;4.93;;
35488;SDS011;21602;55.670;37.578;2022-07-23T05:18:31;17.60;;;5.17;;
35488;SDS011;21602;55.670;37.578;2022-07-23T05:20:56;21.58;;;6.07;;
35488;SDS011;21602;55.670;37.578;2022-07-23T05:23:22;9.10;;;5.25;;
35488;SDS011;21602;55.670;37.578;2022-07-23T05:25:48;8.27;;;4.57;;
35488;SDS011;21602;55.670;37.578;2022-07-23T05:28:16;11.17;;;4.73;;
35488;SDS011;21602;55.670;37.578;2022-07-23T05:30:42;8.32;;;4.72;;
35488;SDS011;21602;55.670;37.578;2022-07-23T05:33:11;12.27;;;5.60;;
35488;SDS011;21602;55.670;37.578;2022-07-23T05:35:38;9.55;;;6.03;;
35488;SDS011;21602;55.670;37.578;2022-07-23T05:38:23;9.80;;;5.25;;
35488;SDS011;21602;55.670;37.578;2022-07-23T05:40:49;7.95;;;5.00;;
35488;SDS011;21602;55.670;37.578;2022-07-23T05:43:15;6.88;;;4.75;;
35488;SDS011;21602;55.670;37.578;2022-07-23T05:45:41;10.52;;;5.40;;
35488;SDS011;21602;55.670;37.578;2022-07-23T05:48:07;7.50;;;5.35;;
35488;SDS011;21602;55.670;37.578;2022-07-23T05:50:40;9.70;;;5.40;;
35488;SDS011;21602;55.670;37.578;2022-07-23T05:53:18;11.45;;;5.47;;
35488;SDS011;21602;55.670;37.578;2022-07-23T05:56:06;16.85;;;5.68;;
35488;SDS011;21602;55.670;37.578;2022-07-23T05:58:32;14.80;;;5.80;;
35488;SDS011;21602;55.670;37.578;2022-07-23T06:00:58;16.77;;;5.80;;
35488;SDS011;21602;55.670;37.578;2022-07-23T06:03:25;11.48;;;5.13;;
35488;SDS011;21602;55.670;37.578;2022-07-23T06:05:51;14.68;;;5.93;;
35488;SDS011;21602;55.670;37.578;2022-07-23T06:08:17;11.70;;;6.00;;
35488;SDS011;21602;55.670;37.578;2022-07-23T06:10:43;10.35;;;5.55;;
35488;SDS011;21602;55.670;37.578;2022-07-23T06:13:09;12.38;;;5.63;;
35488;SDS011;21602;55.670;37.578;2022-07-23T06:15:35;10.70;;;5.15;;
35488;SDS011;21602;55.670;37.578;2022-07-23T06:18:01;9.38;;;5.20;;
35488;SDS011;21602;55.670;37.578;2022-07-23T06:20:27;9.90;;;5.30;;
35488;SDS011;21602;55.670;37.578;2022-07-23T06:22:52;11.07;;;5.57;;
35488;SDS011;21602;55.670;37.578;2022-07-23T06:25:18;11.85;;;5.45;;
35488;SDS011;21602;55.670;37.578;2022-07-23T06:27:46;10.20;;;5.28;;
35488;SDS011;21602;55.670;37.578;2022-07-23T06:30:12;9.50;;;5.88;;
35488;SDS011;21602;55.670;37.578;2022-07-23T06:32:38;8.88;;;5.25;;
35488;SDS011;21602;55.670;37.578;2022-07-23T06:35:04;10.32;;;5.22;;
35488;SDS011;21602;55.670;37.578;2022-07-23T06:37:30;7.95;;;5.85;;
35488;SDS011;21602;55.670;37.578;2022-07-23T06:39:59;7.55;;;4.55;;
35488;SDS011;21602;55.670;37.578;2022-07-23T06:42:25;6.45;;;5.00;;
35488;SDS011;21602;55.670;37.578;2022-07-23T06:44:56;8.38;;;4.78;;
35488;SDS011;21602;55.670;37.578;2022-07-23T06:47:22;6.05;;;4.60;;
35488;SDS011;21602;55.670;37.578;2022-07-23T06:49:54;9.25;;;5.13;;
35488;SDS011;21602;55.670;37.578;2022-07-23T06:52:20;6.03;;;4.80;;
35488;SDS011;21602;55.670;37.578;2022-07-23T06:54:46;5.70;;;4.53;;
35488;SDS011;21602;55.670;37.578;2022-07-23T06:57:11;7.38;;;4.60;;
35488;SDS011;21602;55.670;37.578;2022-07-23T06:59:37;5.45;;;4.45;;
35488;SDS011;21602;55.670;37.578;2022-07-23T07:02:06;5.20;;;4.05;;
35488;SDS011;21602;55.670;37.578;2022-07-23T07:04:33;8.40;;;4.43;;
35488;SDS011;21602;55.670;37.578;2022-07-23T07:06:59;7.68;;;5.25;;
35488;SDS011;21602;55.670;37.578;2022-07-23T07:09:25;4.65;;;3.85;;
35488;SDS011;21602;55.670;37.578;2022-07-23T07:11:50;6.00;;;4.28;;
35488;SDS011;21602;55.670;37.578;2022-07-23T07:14:16;7.05;;;4.25;;
35488;SDS011;21602;55.670;37.578;2022-07-23T07:16:42;5.82;;;4.45;;
35488;SDS011;21602;55.670;37.578;2022-07-23T07:19:08;6.50;;;4.03;;
35488;SDS011;21602;55.670;37.578;2022-07-23T07:21:33;8.45;;;3.97;;
35488;SDS011;21602;55.670;37.578;2022-07-23T07:23:59;4.63;;;3.90;;
35488;SDS011;21602;55.670;37.578;2022-07-23T07:26:25;4.20;;;3.80;;
35488;SDS011;21602;55.670;37.578;2022-07-23T07:28:51;5.50;;;3.97;;
35488;SDS011;21602;55.670;37.578;2022-07-23T07:31:17;6.85;;;3.95;;
35488;SDS011;21602;55.670;37.578;2022-07-23T07:33:42;10.65;;;5.13;;
35488;SDS011;21602;55.670;37.578;2022-07-23T07:36:08;4.75;;;4.32;;
35488;SDS011;21602;55.670;37.578;2022-07-23T07:38:34;5.85;;;4.03;;
35488;SDS011;21602;55.670;37.578;2022-07-23T07:41:00;9.07;;;4.95;;
35488;SDS011;21602;55.670;37.578;2022-07-23T07:43:26;5.45;;;4.75;;
35488;SDS011;21602;55.670;37.578;2022-07-23T07:45:52;5.05;;;4.28;;
35488;SDS011;21602;55.670;37.578;2022-07-23T07:48:17;6.10;;;4.68;;
35488;SDS011;21602;55.670;37.578;2022-07-23T07:50:43;7.22;;;4.57;;
35488;SDS011;21602;55.670;37.578;2022-07-23T07:53:09;6.03;;;4.88;;
35488;SDS011;21602;55.670;37.578;2022-07-23T07:55:35;5.70;;;5.00;;
35488;SDS011;21602;55.670;37.578;2022-07-23T07:58:00;4.28;;;3.88;;
35488;SDS011;21602;55.670;37.578;2022-07-23T08:00:27;9.73;;;4.50;;
35488;SDS011;21602;55.670;37.578;2022-07-23T08:02:53;6.95;;;4.90;;
35488;SDS011;21602;55.670;37.578;2022-07-23T08:05:20;7.32;;;5.20;;
35488;SDS011;21602;55.670;37.578;2022-07-23T08:07:53;7.70;;;4.38;;
35488;SDS011;21602;55.670;37.578;2022-07-23T08:10:20;11.90;;;5.10;;
35488;SDS011;21602;55.670;37.578;2022-07-23T08:12:47;8.00;;;4.57;;
35488;SDS011;21602;55.670;37.578;2022-07-23T08:15:15;8.40;;;4.72;;
35488;SDS011;21602;55.670;37.578;2022-07-23T08:17:44;5.60;;;4.57;;
35488;SDS011;21602;55.670;37.578;2022-07-23T08:20:12;5.18;;;4.68;;
35488;SDS011;21602;55.670;37.578;2022-07-23T08:22:46;11.20;;;4.95;;
35488;SDS011;21602;55.670;37.578;2022-07-23T08:25:14;7.20;;;5.07;;
35488;SDS011;21602;55.670;37.578;2022-07-23T08:27:41;5.72;;;4.80;;
35488;SDS011;21602;55.670;37.578;2022-07-23T08:30:08;8.25;;;4.47;;
35488;SDS011;21602;55.670;37.578;2022-07-23T08:32:47;8.63;;;4.47;;
35488;SDS011;21602;55.670;37.578;2022-07-23T08:35:13;8.45;;;5.20;;
35488;SDS011;21602;55.670;37.578;2022-07-23T08:37:39;6.63;;;4.68;;
35488;SDS011;21602;55.670;37.578;2022-07-23T08:40:08;5.80;;;4.45;;
35488;SDS011;21602;55.670;37.578;2022-07-23T08:42:35;7.35;;;4.85;;
35488;SDS011;21602;55.670;37.578;2022-07-23T08:45:01;4.88;;;4.32;;
35488;SDS011;21602;55.670;37.578;2022-07-23T08:47:29;12.05;;;5.20;;
35488;SDS011;21602;55.670;37.578;2022-07-23T08:49:56;7.35;;;5.32;;
35488;SDS011;21602;55.670;37.578;2022-07-23T08:54:50;11.35;;;5.70;;
35488;SDS011;21602;55.670;37.578;2022-07-23T08:57:16;8.13;;;5.10;;
35488;SDS011;21602;55.670;37.578;2022-07-23T08:59:42;11.30;;;5.32;;
35488;SDS011;21602;55.670;37.578;2022-07-23T09:02:08;6.13;;;5.32;;
35488;SDS011;21602;55.670;37.578;2022-07-23T09:04:34;7.97;;;5.50;;
35488;SDS011;21602;55.670;37.578;2022-07-23T09:07:01;5.85;;;5.20;;
35488;SDS011;21602;55.670;37.578;2022-07-23T09:09:27;10.25;;;5.35;;
35488;SDS011;21602;55.670;37.578;2022-07-23T09:12:03;9.25;;;5.15;;
35488;SDS011;21602;55.670;37.578;2022-07-23T09:14:42;6.70;;;5.15;;
35488;SDS011;21602;55.670;37.578;2022-07-23T09:17:16;7.68;;;5.35;;
35488;SDS011;21602;55.670;37.578;2022-07-23T09:19:44;9.10;;;6.13;;
35488;SDS011;21602;55.670;37.578;2022-07-23T09:22:24;11.75;;;5.10;;
35488;SDS011;21602;55.670;37.578;2022-07-23T09:25:16;8.85;;;5.40;;
35488;SDS011;21602;55.670;37.578;2022-07-23T09:30:21;8.75;;;5.10;;
35488;SDS011;21602;55.670;37.578;2022-07-23T09:35:44;10.45;;;6.63;;
35488;SDS011;21602;55.670;37.578;2022-07-23T09:38:18;6.63;;;5.72;;
35488;SDS011;21602;55.670;37.578;2022-07-23T09:40:45;6.43;;;5.47;;
35488;SDS011;21602;55.670;37.578;2022-07-23T09:43:12;6.25;;;5.65;;
35488;SDS011;21602;55.670;37.578;2022-07-23T09:45:52;8.43;;;5.88;;
35488;SDS011;21602;55.670;37.578;2022-07-23T09:48:18;10.15;;;6.22;;
35488;SDS011;21602;55.670;37.578;2022-07-23T09:50:44;6.60;;;5.30;;
35488;SDS011;21602;55.670;37.578;2022-07-23T09:53:23;7.28;;;5.10;;
35488;SDS011;21602;55.670;37.578;2022-07-23T09:55:51;7.07;;;5.30;;
35488;SDS011;21602;55.670;37.578;2022-07-23T09:58:22;6.35;;;5.30;;
35488;SDS011;21602;55.670;37.578;2022-07-23T10:00:48;5.88;;;5.28;;
35488;SDS011;21602;55.670;37.578;2022-07-23T10:03:15;6.70;;;5.23;;
35488;SDS011;21602;55.670;37.578;2022-07-23T10:06:01;7.97;;;4.95;;
35488;SDS011;21602;55.670;37.578;2022-07-23T10:08:27;7.75;;;5.95;;
35488;SDS011;21602;55.670;37.578;2022-07-23T10:11:15;10.05;;;5.38;;
35488;SDS011;21602;55.670;37.578;2022-07-23T10:13:44;10.27;;;5.68;;
35488;SDS011;21602;55.670;37.578;2022-07-23T10:16:21;10.57;;;5.75;;
35488;SDS011;21602;55.670;37.578;2022-07-23T10:18:47;7.80;;;6.00;;
35488;SDS011;21602;55.670;37.578;2022-07-23T10:21:25;7.50;;;5.70;;
35488;SDS011;21602;55.670;37.578;2022-07-23T10:27:27;6.82;;;5.20;;
35488;SDS011;21602;55.670;37.578;2022-07-23T10:29:49;9.90;;;5.47;;
35488;SDS011;21602;55.670;37.578;2022-07-23T10:32:34;10.30;;;6.25;;
35488;SDS011;21602;55.670;37.578;2022-07-23T10:37:36;6.57;;;5.80;;
35488;SDS011;21602;55.670;37.578;2022-07-23T10:40:10;7.55;;;5.95;;
35488;SDS011;21602;55.670;37.578;2022-07-23T10:42:42;9.13;;;6.00;;
35488;SDS011;21602;55.670;37.578;2022-07-23T10:45:29;12.27;;;6.63;;
35488;SDS011;21602;55.670;37.578;2022-07-23T10:51:08;9.85;;;6.25;;
35488;SDS011;21602;55.670;37.578;2022-07-23T10:56:15;9.27;;;6.82;;
35488;SDS011;21602;55.670;37.578;2022-07-23T10:58:47;6.63;;;5.68;;
35488;SDS011;21602;55.670;37.578;2022-07-23T11:01:34;7.45;;;6.57;;
35488;SDS011;21602;55.670;37.578;2022-07-23T11:04:02;9.43;;;6.30;;
35488;SDS011;21602;55.670;37.578;2022-07-23T11:17:36;8.18;;;5.95;;
35488;SDS011;21602;55.670;37.578;2022-07-23T11:25:08;7.78;;;5.90;;
35488;SDS011;21602;55.670;37.578;2022-07-23T11:30:10;7.35;;;5.88;;
35488;SDS011;21602;55.670;37.578;2022-07-23T11:32:51;6.68;;;6.00;;
35488;SDS011;21602;55.670;37.578;2022-07-23T11:35:19;6.72;;;6.13;;
35488;SDS011;21602;55.670;37.578;2022-07-23T11:37:47;6.70;;;6.07;;
35488;SDS011;21602;55.670;37.578;2022-07-23T11:40:14;6.15;;;5.55;;
35488;SDS011;21602;55.670;37.578;2022-07-23T11:45:21;6.07;;;5.47;;
35488;SDS011;21602;55.670;37.578;2022-07-23T11:47:48;7.03;;;5.80;;
35488;SDS011;21602;55.670;37.578;2022-07-23T11:50:14;7.25;;;6.25;;
35488;SDS011;21602;55.670;37.578;2022-07-23T11:52:40;7.10;;;6.40;;
35488;SDS011;21602;55.670;37.578;2022-07-23T11:55:07;12.85;;;5.53;;
35488;SDS011;21602;55.670;37.578;2022-07-23T11:57:37;7.25;;;6.38;;
35488;SDS011;21602;55.670;37.578;2022-07-23T12:00:08;18.67;;;6.13;;
35488;SDS011;21602;55.670;37.578;2022-07-23T12:02:48;6.55;;;5.35;;
35488;SDS011;21602;55.670;37.578;2022-07-23T12:05:17;7.20;;;6.03;;
35488;SDS011;21602;55.670;37.578;2022-07-23T12:07:45;8.70;;;6.82;;
35488;SDS011;21602;55.670;37.578;2022-07-23T12:12:42;9.85;;;6.18;;
35488;SDS011;21602;55.670;37.578;2022-07-23T12:15:20;9.10;;;5.85;;
35488;SDS011;21602;55.670;37.578;2022-07-23T12:17:49;7.72;;;5.72;;
35488;SDS011;21602;55.670;37.578;2022-07-23T12:20:18;10.02;;;6.45;;
35488;SDS011;21602;55.670;37.578;2022-07-23T12:22:47;9.95;;;6.07;;
35488;SDS011;21602;55.670;37.578;2022-07-23T12:25:16;9.88;;;7.00;;
35488;SDS011;21602;55.670;37.578;2022-07-23T12:27:46;8.63;;;5.88;;
35488;SDS011;21602;55.670;37.578;2022-07-23T12:30:24;6.57;;;5.97;;
35488;SDS011;21602;55.670;37.578;2022-07-23T12:32:53;6.43;;;5.85;;
35488;SDS011;21602;55.670;37.578;2022-07-23T12:35:22;9.60;;;6.53;;
35488;SDS011;21602;55.670;37.578;2022-07-23T12:37:49;7.30;;;6.57;;
35488;SDS011;21602;55.670;37.578;2022-07-23T12:40:21;8.07;;;6.03;;
35488;SDS011;21602;55.670;37.578;2022-07-23T12:42:48;9.02;;;5.68;;
35488;SDS011;21602;55.670;37.578;2022-07-23T12:45:18;13.45;;;6.32;;
35488;SDS011;21602;55.670;37.578;2022-07-23T12:50:51;8.23;;;6.10;;
35488;SDS011;21602;55.670;37.578;2022-07-23T12:53:23;6.10;;;5.47;;
35488;SDS011;21602;55.670;37.578;2022-07-23T12:58:53;6.65;;;5.50;;
35488;SDS011;21602;55.670;37.578;2022-07-23T13:01:45;7.45;;;5.93;;
35488;SDS011;21602;55.670;37.578;2022-07-23T13:04:21;7.65;;;5.45;;
35488;SDS011;21602;55.670;37.578;2022-07-23T13:06:57;6.18;;;5.57;;
35488;SDS011;21602;55.670;37.578;2022-07-23T13:09:27;9.18;;;6.07;;
35488;SDS011;21602;55.670;37.578;2022-07-23T13:11:55;6.35;;;5.75;;
35488;SDS011;21602;55.670;37.578;2022-07-23T13:16:49;7.88;;;6.00;;
35488;SDS011;21602;55.670;37.578;2022-07-23T13:19:17;7.82;;;5.63;;
35488;SDS011;21602;55.670;37.578;2022-07-23T13:21:43;6.75;;;6.05;;
35488;SDS011;21602;55.670;37.578;2022-07-23T13:24:10;6.35;;;5.38;;
35488;SDS011;21602;55.670;37.578;2022-07-23T13:26:37;7.80;;;6.10;;
35488;SDS011;21602;55.670;37.578;2022-07-23T13:29:04;7.13;;;5.88;;
35488;SDS011;21602;55.670;37.578;2022-07-23T13:31:30;8.75;;;5.30;;
35488;SDS011;21602;55.670;37.578;2022-07-23T13:33:56;17.40;;;5.80;;
35488;SDS011;21602;55.670;37.578;2022-07-23T13:36:22;9.32;;;5.40;;
35488;SDS011;21602;55.670;37.578;2022-07-23T13:38:48;6.97;;;5.43;;
35488;SDS011;21602;55.670;37.578;2022-07-23T13:41:13;5.30;;;4.82;;
35488;SDS011;21602;55.670;37.578;2022-07-23T13:43:42;6.85;;;5.63;;
35488;SDS011;21602;55.670;37.578;2022-07-23T13:46:07;8.20;;;5.38;;
35488;SDS011;21602;55.670;37.578;2022-07-23T13:48:33;7.53;;;5.18;;
35488;SDS011;21602;55.670;37.578;2022-07-23T13:50:59;7.93;;;5.78;;
35488;SDS011;21602;55.670;37.578;2022-07-23T13:53:25;6.35;;;5.75;;
35488;SDS011;21602;55.670;37.578;2022-07-23T13:55:51;5.60;;;5.10;;
35488;SDS011;21602;55.670;37.578;2022-07-23T13:58:18;8.65;;;5.72;;
35488;SDS011;21602;55.670;37.578;2022-07-23T14:00:45;8.23;;;6.00;;
35488;SDS011;21602;55.670;37.578;2022-07-23T14:03:13;5.68;;;5.07;;
35488;SDS011;21602;55.670;37.578;2022-07-23T14:05:39;6.20;;;4.90;;
35488;SDS011;21602;55.670;37.578;2022-07-23T14:08:07;6.68;;;5.53;;
35488;SDS011;21602;55.670;37.578;2022-07-23T14:10:33;6.22;;;5.18;;
35488;SDS011;21602;55.670;37.578;2022-07-23T14:12:59;6.05;;;5.00;;
35488;SDS011;21602;55.670;37.578;2022-07-23T14:15:25;7.43;;;5.22;;
35488;SDS011;21602;55.670;37.578;2022-07-23T14:17:53;5.70;;;5.15;;
35488;SDS011;21602;55.670;37.578;2022-07-23T14:20:19;8.15;;;5.45;;
35488;SDS011;21602;55.670;37.578;2022-07-23T14:22:45;5.75;;;5.15;;
35488;SDS011;21602;55.670;37.578;2022-07-23T14:25:11;7.68;;;5.53;;
35488;SDS011;21602;55.670;37.578;2022-07-23T14:27:37;7.65;;;5.10;;
35488;SDS011;21602;55.670;37.578;2022-07-23T14:30:04;6.47;;;5.28;;
35488;SDS011;21602;55.670;37.578;2022-07-23T14:32:31;6.05;;;5.13;;
35488;SDS011;21602;55.670;37.578;2022-07-23T14:34:57;7.32;;;5.60;;
35488;SDS011;21602;55.670;37.578;2022-07-23T14:37:23;5.70;;;5.20;;
35488;SDS011;21602;55.670;37.578;2022-07-23T14:39:50;7.85;;;5.40;;
35488;SDS011;21602;55.670;37.578;2022-07-23T14:42:16;7.03;;;5.60;;
35488;SDS011;21602;55.670;37.578;2022-07-23T14:44:42;11.98;;;5.85;;
35488;SDS011;21602;55.670;37.578;2022-07-23T14:47:07;8.07;;;5.00;;
35488;SDS011;21602;55.670;37.578;2022-07-23T14:49:33;8.10;;;5.38;;
35488;SDS011;21602;55.670;37.578;2022-07-23T14:52:00;5.97;;;4.82;;
35488;SDS011;21602;55.670;37.578;2022-07-23T14:54:26;6.88;;;4.60;;
35488;SDS011;21602;55.670;37.578;2022-07-23T14:56:53;9.82;;;5.10;;
35488;SDS011;21602;55.670;37.578;2022-07-23T14:59:20;7.32;;;4.80;;
35488;SDS011;21602;55.670;37.578;2022-07-23T15:01:46;6.47;;;5.30;;
35488;SDS011;21602;55.670;37.578;2022-07-23T15:04:12;7.63;;;5.05;;
35488;SDS011;21602;55.670;37.578;2022-07-23T15:06:38;6.25;;;4.63;;
35488;SDS011;21602;55.670;37.578;2022-07-23T15:09:04;8.02;;;5.05;;
35488;SDS011;21602;55.670;37.578;2022-07-23T15:11:30;6.38;;;5.00;;
35488;SDS011;21602;55.670;37.578;2022-07-23T15:14:00;6.38;;;4.78;;
35488;SDS011;21602;55.670;37.578;2022-07-23T15:16:26;8.73;;;5.10;;
35488;SDS011;21602;55.670;37.578;2022-07-23T15:18:52;5.72;;;5.13;;
35488;SDS011;21602;55.670;37.578;2022-07-23T15:21:18;6.50;;;5.22;;
35488;SDS011;21602;55.670;37.578;2022-07-23T15:23:44;8.02;;;5.90;;
35488;SDS011;21602;55.670;37.578;2022-07-23T15:26:10;8.45;;;5.75;;
35488;SDS011;21602;55.670;37.578;2022-07-23T15:28:36;7.70;;;4.97;;